sensor_id;sensor_type;location;lat;lon;timestamp;temperature;humidity
70421;SHT31;57848;51.938;15.520;2023-04-25T00:01:02;8.50;79.72
70421;SHT31;57848;51.938;15.520;2023-04-25T00:03:28;8.36;79.91
70421;SHT31;57848;51.938;15.520;2023-04-25T00:05:54;8.36;80.29
70421;SHT31;57848;51.938;15.520;2023-04-25T00:08:22;8.32;80.31
70421;SHT31;57848;51.938;15.520;2023-04-25T00:10:47;8.32;80.79
70421;SHT31;57848;51.938;15.520;2023-04-25T00:13:14;8.23;80.79
70421;SHT31;57848;51.938;15.520;2023-04-25T00:15:40;8.21;81.07
70421;SHT31;57848;51.938;15.520;2023-04-25T00:18:07;8.26;80.87
70421;SHT31;57848;51.938;15.520;2023-04-25T00:20:32;8.25;80.85
70421;SHT31;57848;51.938;15.520;2023-04-25T00:22:58;8.21;80.92
70421;SHT31;57848;51.938;15.520;2023-04-25T00:25:23;8.17;81.02
70421;SHT31;57848;51.938;15.520;2023-04-25T00:27:48;8.10;81.44
70421;SHT31;57848;51.938;15.520;2023-04-25T00:30:14;8.17;81.01
70421;SHT31;57848;51.938;15.520;2023-04-25T00:32:39;8.10;81.24
70421;SHT31;57848;51.938;15.520;2023-04-25T00:35:05;8.23;81.23
70421;SHT31;57848;51.938;15.520;2023-04-25T00:37:31;8.22;80.81
70421;SHT31;57848;51.938;15.520;2023-04-25T00:39:58;8.22;80.74
70421;SHT31;57848;51.938;15.520;2023-04-25T00:42:24;8.19;80.85
70421;SHT31;57848;51.938;15.520;2023-04-25T00:44:51;8.28;81.35
70421;SHT31;57848;51.938;15.520;2023-04-25T00:47:17;8.23;81.02
70421;SHT31;57848;51.938;15.520;2023-04-25T00:49:42;8.26;80.85
70421;SHT31;57848;51.938;15.520;2023-04-25T00:52:08;8.32;80.83
70421;SHT31;57848;51.938;15.520;2023-04-25T00:54:33;8.35;80.92
70421;SHT31;57848;51.938;15.520;2023-04-25T00:56:59;8.37;80.50
70421;SHT31;57848;51.938;15.520;2023-04-25T00:59:26;8.50;80.28
70421;SHT31;57848;51.938;15.520;2023-04-25T01:01:52;8.47;80.78
70421;SHT31;57848;51.938;15.520;2023-04-25T01:04:18;8.53;80.26
70421;SHT31;57848;51.938;15.520;2023-04-25T01:06:43;8.52;80.16
70421;SHT31;57848;51.938;15.520;2023-04-25T01:09:09;8.46;80.61
70421;SHT31;57848;51.938;15.520;2023-04-25T01:11:35;8.40;81.16
70421;SHT31;57848;51.938;15.520;2023-04-25T01:14:00;8.32;81.32
70421;SHT31;57848;51.938;15.520;2023-04-25T01:16:27;8.26;81.59
70421;SHT31;57848;51.938;15.520;2023-04-25T01:18:53;8.23;81.68
70421;SHT31;57848;51.938;15.520;2023-04-25T01:21:19;8.13;82.20
70421;SHT31;57848;51.938;15.520;2023-04-25T01:23:46;8.05;82.37
70421;SHT31;57848;51.938;15.520;2023-04-25T01:26:12;7.96;82.63
70421;SHT31;57848;51.938;15.520;2023-04-25T01:28:39;7.95;82.66
70421;SHT31;57848;51.938;15.520;2023-04-25T01:31:06;7.94;82.72
70421;SHT31;57848;51.938;15.520;2023-04-25T01:33:32;7.96;82.94
70421;SHT31;57848;51.938;15.520;2023-04-25T01:35:57;7.89;83.05
70421;SHT31;57848;51.938;15.520;2023-04-25T01:38:23;7.85;83.06
70421;SHT31;57848;51.938;15.520;2023-04-25T01:40:50;7.79;83.30
70421;SHT31;57848;51.938;15.520;2023-04-25T01:43:18;7.85;83.38
70421;SHT31;57848;51.938;15.520;2023-04-25T01:45:44;7.85;83.41
70421;SHT31;57848;51.938;15.520;2023-04-25T01:48:12;7.88;82.74
70421;SHT31;57848;51.938;15.520;2023-04-25T01:50:38;7.78;82.96
70421;SHT31;57848;51.938;15.520;2023-04-25T01:53:04;7.74;83.13
70421;SHT31;57848;51.938;15.520;2023-04-25T01:55:29;7.71;82.75
70421;SHT31;57848;51.938;15.520;2023-04-25T01:58:02;7.68;82.83
70421;SHT31;57848;51.938;15.520;2023-04-25T02:00:44;7.81;82.19
70421;SHT31;57848;51.938;15.520;2023-04-25T02:03:10;7.71;82.37
70421;SHT31;57848;51.938;15.520;2023-04-25T02:05:36;7.71;82.47
70421;SHT31;57848;51.938;15.520;2023-04-25T02:08:05;7.71;82.20
70421;SHT31;57848;51.938;15.520;2023-04-25T02:10:31;7.67;82.38
70421;SHT31;57848;51.938;15.520;2023-04-25T02:13:09;7.64;82.31
70421;SHT31;57848;51.938;15.520;2023-04-25T02:15:48;7.63;82.31
70421;SHT31;57848;51.938;15.520;2023-04-25T02:18:15;7.63;82.41
70421;SHT31;57848;51.938;15.520;2023-04-25T02:20:44;7.57;82.47
70421;SHT31;57848;51.938;15.520;2023-04-25T02:23:09;7.53;82.67
70421;SHT31;57848;51.938;15.520;2023-04-25T02:25:34;7.40;82.96
70421;SHT31;57848;51.938;15.520;2023-04-25T02:28:00;7.38;83.09
70421;SHT31;57848;51.938;15.520;2023-04-25T02:30:25;7.34;83.62
70421;SHT31;57848;51.938;15.520;2023-04-25T02:32:51;7.37;83.40
70421;SHT31;57848;51.938;15.520;2023-04-25T02:35:16;7.27;83.55
70421;SHT31;57848;51.938;15.520;2023-04-25T02:37:42;7.30;83.74
70421;SHT31;57848;51.938;15.520;2023-04-25T02:40:08;7.33;83.64
70421;SHT31;57848;51.938;15.520;2023-04-25T02:42:33;7.27;83.92
70421;SHT31;57848;51.938;15.520;2023-04-25T02:44:59;7.17;83.77
70421;SHT31;57848;51.938;15.520;2023-04-25T02:47:26;7.16;83.93
70421;SHT31;57848;51.938;15.520;2023-04-25T02:49:52;7.19;83.76
70421;SHT31;57848;51.938;15.520;2023-04-25T02:52:17;7.13;84.09
70421;SHT31;57848;51.938;15.520;2023-04-25T02:54:47;7.16;83.86
70421;SHT31;57848;51.938;15.520;2023-04-25T02:57:12;7.13;83.82
70421;SHT31;57848;51.938;15.520;2023-04-25T02:59:37;7.16;83.61
70421;SHT31;57848;51.938;15.520;2023-04-25T03:02:03;7.12;83.67
70421;SHT31;57848;51.938;15.520;2023-04-25T03:04:28;7.12;83.66
70421;SHT31;57848;51.938;15.520;2023-04-25T03:06:54;7.00;83.97
70421;SHT31;57848;51.938;15.520;2023-04-25T03:09:21;7.02;83.44
70421;SHT31;57848;51.938;15.520;2023-04-25T03:11:47;6.95;83.75
70421;SHT31;57848;51.938;15.520;2023-04-25T03:14:13;6.92;83.61
70421;SHT31;57848;51.938;15.520;2023-04-25T03:16:39;6.95;83.66
70421;SHT31;57848;51.938;15.520;2023-04-25T03:19:04;6.96;83.48
70421;SHT31;57848;51.938;15.520;2023-04-25T03:21:31;6.95;83.42
70421;SHT31;57848;51.938;15.520;2023-04-25T03:23:58;6.96;83.43
70421;SHT31;57848;51.938;15.520;2023-04-25T03:26:23;6.89;83.50
70421;SHT31;57848;51.938;15.520;2023-04-25T03:28:49;6.89;83.49
70421;SHT31;57848;51.938;15.520;2023-04-25T03:31:14;6.88;83.64
70421;SHT31;57848;51.938;15.520;2023-04-25T03:33:40;6.91;83.23
70421;SHT31;57848;51.938;15.520;2023-04-25T03:36:05;6.81;83.64
70421;SHT31;57848;51.938;15.520;2023-04-25T03:38:31;6.81;83.62
70421;SHT31;57848;51.938;15.520;2023-04-25T03:40:57;6.81;83.88
70421;SHT31;57848;51.938;15.520;2023-04-25T03:43:36;6.86;83.32
70421;SHT31;57848;51.938;15.520;2023-04-25T03:46:05;6.81;83.36
70421;SHT31;57848;51.938;15.520;2023-04-25T03:48:31;6.81;83.38
70421;SHT31;57848;51.938;15.520;2023-04-25T03:50:57;6.82;83.62
70421;SHT31;57848;51.938;15.520;2023-04-25T03:53:23;6.82;83.21
70421;SHT31;57848;51.938;15.520;2023-04-25T03:56:24;6.85;83.33
70421;SHT31;57848;51.938;15.520;2023-04-25T03:58:58;6.82;83.16
70421;SHT31;57848;51.938;15.520;2023-04-25T04:01:25;6.84;83.30
70421;SHT31;57848;51.938;15.520;2023-04-25T04:03:51;6.85;83.06
70421;SHT31;57848;51.938;15.520;2023-04-25T04:06:17;6.91;82.92
70421;SHT31;57848;51.938;15.520;2023-04-25T04:08:46;6.92;82.79
70421;SHT31;57848;51.938;15.520;2023-04-25T04:11:12;6.99;82.16
70421;SHT31;57848;51.938;15.520;2023-04-25T04:13:37;6.91;82.86
70421;SHT31;57848;51.938;15.520;2023-04-25T04:16:04;6.93;82.87
70421;SHT31;57848;51.938;15.520;2023-04-25T04:18:30;6.97;82.72
70421;SHT31;57848;51.938;15.520;2023-04-25T04:20:56;7.00;82.30
70421;SHT31;57848;51.938;15.520;2023-04-25T04:23:23;6.97;82.18
70421;SHT31;57848;51.938;15.520;2023-04-25T04:25:49;6.95;82.10
70421;SHT31;57848;51.938;15.520;2023-04-25T04:28:33;7.14;82.06
70421;SHT31;57848;51.938;15.520;2023-04-25T04:31:25;7.27;81.04
70421;SHT31;57848;51.938;15.520;2023-04-25T04:33:50;7.33;80.82
70421;SHT31;57848;51.938;15.520;2023-04-25T04:36:17;7.43;80.12
70421;SHT31;57848;51.938;15.520;2023-04-25T04:38:47;7.38;80.40
70421;SHT31;57848;51.938;15.520;2023-04-25T04:41:22;7.42;80.80
70421;SHT31;57848;51.938;15.520;2023-04-25T04:43:53;7.53;80.05
70421;SHT31;57848;51.938;15.520;2023-04-25T04:46:37;7.50;79.92
70421;SHT31;57848;51.938;15.520;2023-04-25T04:49:12;7.53;79.64
70421;SHT31;57848;51.938;15.520;2023-04-25T04:51:54;7.57;79.57
70421;SHT31;57848;51.938;15.520;2023-04-25T04:54:33;7.55;79.57
70421;SHT31;57848;51.938;15.520;2023-04-25T04:57:12;7.65;79.66
70421;SHT31;57848;51.938;15.520;2023-04-25T04:59:53;7.60;79.48
70421;SHT31;57848;51.938;15.520;2023-04-25T05:02:38;7.63;79.63
70421;SHT31;57848;51.938;15.520;2023-04-25T05:05:21;7.61;79.58
70421;SHT31;57848;51.938;15.520;2023-04-25T05:08:02;7.58;79.75
70421;SHT31;57848;51.938;15.520;2023-04-25T05:10:50;7.60;79.77
70421;SHT31;57848;51.938;15.520;2023-04-25T05:13:37;7.63;79.26
70421;SHT31;57848;51.938;15.520;2023-04-25T05:16:22;7.67;79.00
70421;SHT31;57848;51.938;15.520;2023-04-25T05:19:14;7.55;79.34
70421;SHT31;57848;51.938;15.520;2023-04-25T05:21:59;7.63;79.53
70421;SHT31;57848;51.938;15.520;2023-04-25T05:24:47;7.54;79.53
70421;SHT31;57848;51.938;15.520;2023-04-25T05:27:32;7.53;79.53
70421;SHT31;57848;51.938;15.520;2023-04-25T05:30:17;7.48;79.40
70421;SHT31;57848;51.938;15.520;2023-04-25T05:33:05;7.50;79.57
70421;SHT31;57848;51.938;15.520;2023-04-25T05:35:30;7.54;79.67
70421;SHT31;57848;51.938;15.520;2023-04-25T05:37:56;7.65;79.56
70421;SHT31;57848;51.938;15.520;2023-04-25T05:40:32;7.89;78.65
70421;SHT31;57848;51.938;15.520;2023-04-25T05:43:18;8.05;78.55
70421;SHT31;57848;51.938;15.520;2023-04-25T05:45:53;8.22;77.65
70421;SHT31;57848;51.938;15.520;2023-04-25T05:48:31;8.37;76.53
70421;SHT31;57848;51.938;15.520;2023-04-25T05:51:00;8.46;76.45
70421;SHT31;57848;51.938;15.520;2023-04-25T05:53:49;8.60;76.09
70421;SHT31;57848;51.938;15.520;2023-04-25T05:56:15;8.60;76.22
70421;SHT31;57848;51.938;15.520;2023-04-25T05:58:40;8.70;75.61
70421;SHT31;57848;51.938;15.520;2023-04-25T06:01:06;8.67;76.02
70421;SHT31;57848;51.938;15.520;2023-04-25T06:03:32;8.73;75.86
70421;SHT31;57848;51.938;15.520;2023-04-25T06:05:58;8.73;75.72
70421;SHT31;57848;51.938;15.520;2023-04-25T06:08:24;8.68;75.92
70421;SHT31;57848;51.938;15.520;2023-04-25T06:10:50;8.74;76.07
70421;SHT31;57848;51.938;15.520;2023-04-25T06:13:15;8.73;75.72
70421;SHT31;57848;51.938;15.520;2023-04-25T06:15:41;8.71;75.65
70421;SHT31;57848;51.938;15.520;2023-04-25T06:18:06;8.77;75.60
70421;SHT31;57848;51.938;15.520;2023-04-25T06:20:33;8.81;75.49
70421;SHT31;57848;51.938;15.520;2023-04-25T06:22:59;8.91;75.37
70421;SHT31;57848;51.938;15.520;2023-04-25T06:25:34;8.91;75.20
70421;SHT31;57848;51.938;15.520;2023-04-25T06:27:59;8.88;74.99
70421;SHT31;57848;51.938;15.520;2023-04-25T06:30:25;8.83;74.85
70421;SHT31;57848;51.938;15.520;2023-04-25T06:32:55;8.64;75.28
70421;SHT31;57848;51.938;15.520;2023-04-25T06:35:21;8.63;75.92
70421;SHT31;57848;51.938;15.520;2023-04-25T06:37:46;8.70;76.00
70421;SHT31;57848;51.938;15.520;2023-04-25T06:40:12;8.94;75.57
70421;SHT31;57848;51.938;15.520;2023-04-25T06:42:37;9.14;74.13
70421;SHT31;57848;51.938;15.520;2023-04-25T06:45:22;9.36;74.02
70421;SHT31;57848;51.938;15.520;2023-04-25T06:47:48;9.49;73.57
70421;SHT31;57848;51.938;15.520;2023-04-25T06:50:13;9.70;72.94
70421;SHT31;57848;51.938;15.520;2023-04-25T06:52:38;9.73;72.87
70421;SHT31;57848;51.938;15.520;2023-04-25T06:55:05;9.77;72.64
70421;SHT31;57848;51.938;15.520;2023-04-25T06:57:47;9.94;72.75
70421;SHT31;57848;51.938;15.520;2023-04-25T07:00:44;9.97;71.83
70421;SHT31;57848;51.938;15.520;2023-04-25T07:03:10;9.90;71.72
70421;SHT31;57848;51.938;15.520;2023-04-25T07:05:35;9.97;72.08
70421;SHT31;57848;51.938;15.520;2023-04-25T07:08:01;9.95;72.29
70421;SHT31;57848;51.938;15.520;2023-04-25T07:10:27;10.04;71.85
70421;SHT31;57848;51.938;15.520;2023-04-25T07:12:52;10.17;72.41
70421;SHT31;57848;51.938;15.520;2023-04-25T07:15:17;10.14;71.43
70421;SHT31;57848;51.938;15.520;2023-04-25T07:17:45;10.20;71.38
70421;SHT31;57848;51.938;15.520;2023-04-25T07:20:11;10.08;71.54
70421;SHT31;57848;51.938;15.520;2023-04-25T07:22:36;10.17;71.49
70421;SHT31;57848;51.938;15.520;2023-04-25T07:25:03;10.08;71.43
70421;SHT31;57848;51.938;15.520;2023-04-25T07:27:30;10.11;70.67
70421;SHT31;57848;51.938;15.520;2023-04-25T07:30:02;10.30;70.41
70421;SHT31;57848;51.938;15.520;2023-04-25T07:32:28;10.14;70.03
70421;SHT31;57848;51.938;15.520;2023-04-25T07:34:54;10.13;70.64
70421;SHT31;57848;51.938;15.520;2023-04-25T07:37:19;10.21;70.08
70421;SHT31;57848;51.938;15.520;2023-04-25T07:39:58;10.35;70.11
70421;SHT31;57848;51.938;15.520;2023-04-25T07:42:24;10.59;69.18
70421;SHT31;57848;51.938;15.520;2023-04-25T07:44:49;10.68;68.72
70421;SHT31;57848;51.938;15.520;2023-04-25T07:47:15;10.52;68.40
70421;SHT31;57848;51.938;15.520;2023-04-25T07:49:41;10.38;68.53
70421;SHT31;57848;51.938;15.520;2023-04-25T07:52:06;10.51;68.42
70421;SHT31;57848;51.938;15.520;2023-04-25T07:54:33;10.37;68.39
70421;SHT31;57848;51.938;15.520;2023-04-25T07:57:04;10.32;68.53
70421;SHT31;57848;51.938;15.520;2023-04-25T07:59:32;10.40;68.72
70421;SHT31;57848;51.938;15.520;2023-04-25T08:02:00;10.51;69.05
70421;SHT31;57848;51.938;15.520;2023-04-25T08:04:26;10.56;68.06
70421;SHT31;57848;51.938;15.520;2023-04-25T08:07:03;10.69;68.34
70421;SHT31;57848;51.938;15.520;2023-04-25T08:09:34;10.82;67.43
70421;SHT31;57848;51.938;15.520;2023-04-25T08:12:03;10.89;66.61
70421;SHT31;57848;51.938;15.520;2023-04-25T08:14:31;10.93;66.73
70421;SHT31;57848;51.938;15.520;2023-04-25T08:17:02;10.93;66.57
70421;SHT31;57848;51.938;15.520;2023-04-25T08:19:29;11.17;66.83
70421;SHT31;57848;51.938;15.520;2023-04-25T08:21:56;11.45;66.86
70421;SHT31;57848;51.938;15.520;2023-04-25T08:24:27;11.61;65.52
70421;SHT31;57848;51.938;15.520;2023-04-25T08:26:53;11.77;64.66
70421;SHT31;57848;51.938;15.520;2023-04-25T08:29:21;11.85;63.96
70421;SHT31;57848;51.938;15.520;2023-04-25T08:31:48;11.62;63.22
70421;SHT31;57848;51.938;15.520;2023-04-25T08:34:13;11.79;62.48
70421;SHT31;57848;51.938;15.520;2023-04-25T08:36:44;11.70;62.61
70421;SHT31;57848;51.938;15.520;2023-04-25T08:39:19;11.51;63.77
70421;SHT31;57848;51.938;15.520;2023-04-25T08:42:06;11.61;64.26
70421;SHT31;57848;51.938;15.520;2023-04-25T08:44:35;11.70;64.44
70421;SHT31;57848;51.938;15.520;2023-04-25T08:47:04;11.77;63.87
70421;SHT31;57848;51.938;15.520;2023-04-25T08:49:33;11.57;63.75
70421;SHT31;57848;51.938;15.520;2023-04-25T08:52:03;11.58;63.15
70421;SHT31;57848;51.938;15.520;2023-04-25T08:54:31;11.81;63.71
70421;SHT31;57848;51.938;15.520;2023-04-25T08:57:01;12.09;62.12
70421;SHT31;57848;51.938;15.520;2023-04-25T08:59:30;12.33;60.88
70421;SHT31;57848;51.938;15.520;2023-04-25T09:01:56;12.29;61.66
70421;SHT31;57848;51.938;15.520;2023-04-25T09:04:22;12.42;60.38
70421;SHT31;57848;51.938;15.520;2023-04-25T09:06:48;12.49;60.46
70421;SHT31;57848;51.938;15.520;2023-04-25T09:09:14;12.30;59.86
70421;SHT31;57848;51.938;15.520;2023-04-25T09:11:39;12.25;60.92
70421;SHT31;57848;51.938;15.520;2023-04-25T09:14:19;11.98;61.47
70421;SHT31;57848;51.938;15.520;2023-04-25T09:17:08;11.68;62.10
70421;SHT31;57848;51.938;15.520;2023-04-25T09:19:41;11.75;62.96
70421;SHT31;57848;51.938;15.520;2023-04-25T09:22:17;11.60;63.22
70421;SHT31;57848;51.938;15.520;2023-04-25T09:24:44;11.31;63.56
70421;SHT31;57848;51.938;15.520;2023-04-25T09:27:18;11.35;63.65
70421;SHT31;57848;51.938;15.520;2023-04-25T09:29:44;11.55;63.42
70421;SHT31;57848;51.938;15.520;2023-04-25T09:32:13;11.65;63.04
70421;SHT31;57848;51.938;15.520;2023-04-25T09:34:41;11.71;63.43
70421;SHT31;57848;51.938;15.520;2023-04-25T09:37:10;11.67;63.26
70421;SHT31;57848;51.938;15.520;2023-04-25T09:40:00;11.78;63.71
70421;SHT31;57848;51.938;15.520;2023-04-25T09:42:29;11.72;63.10
70421;SHT31;57848;51.938;15.520;2023-04-25T09:44:58;11.62;62.59
70421;SHT31;57848;51.938;15.520;2023-04-25T09:47:25;11.60;63.04
70421;SHT31;57848;51.938;15.520;2023-04-25T09:49:51;11.71;63.45
70421;SHT31;57848;51.938;15.520;2023-04-25T09:52:20;11.79;62.73
70421;SHT31;57848;51.938;15.520;2023-04-25T09:54:56;11.82;62.72
70421;SHT31;57848;51.938;15.520;2023-04-25T09:57:28;11.75;62.61
70421;SHT31;57848;51.938;15.520;2023-04-25T09:59:55;11.72;62.76
70421;SHT31;57848;51.938;15.520;2023-04-25T10:02:26;11.81;63.05
70421;SHT31;57848;51.938;15.520;2023-04-25T10:04:56;11.50;63.51
70421;SHT31;57848;51.938;15.520;2023-04-25T10:07:29;11.44;64.08
70421;SHT31;57848;51.938;15.520;2023-04-25T10:10:02;11.40;64.60
70421;SHT31;57848;51.938;15.520;2023-04-25T10:12:29;11.54;64.41
70421;SHT31;57848;51.938;15.520;2023-04-25T10:14:57;11.70;64.29
70421;SHT31;57848;51.938;15.520;2023-04-25T10:17:23;11.99;63.30
70421;SHT31;57848;51.938;15.520;2023-04-25T10:19:48;12.44;61.55
70421;SHT31;57848;51.938;15.520;2023-04-25T10:22:23;12.87;61.05
70421;SHT31;57848;51.938;15.520;2023-04-25T10:24:49;13.05;60.52
70421;SHT31;57848;51.938;15.520;2023-04-25T10:27:16;13.34;59.83
70421;SHT31;57848;51.938;15.520;2023-04-25T10:29:41;14.71;57.31
70421;SHT31;57848;51.938;15.520;2023-04-25T10:32:08;15.91;53.61
70421;SHT31;57848;51.938;15.520;2023-04-25T10:34:41;16.09;52.02
70421;SHT31;57848;51.938;15.520;2023-04-25T10:37:09;16.80;51.18
70421;SHT31;57848;51.938;15.520;2023-04-25T10:39:35;17.35;50.30
70421;SHT31;57848;51.938;15.520;2023-04-25T10:42:01;17.77;48.35
70421;SHT31;57848;51.938;15.520;2023-04-25T10:44:28;17.40;49.50
70421;SHT31;57848;51.938;15.520;2023-04-25T10:47:01;15.98;51.67
70421;SHT31;57848;51.938;15.520;2023-04-25T10:49:41;15.30;53.66
70421;SHT31;57848;51.938;15.520;2023-04-25T10:52:26;14.98;54.79
70421;SHT31;57848;51.938;15.520;2023-04-25T10:54:57;14.78;54.69
70421;SHT31;57848;51.938;15.520;2023-04-25T10:57:41;14.55;56.30
70421;SHT31;57848;51.938;15.520;2023-04-25T11:00:08;14.34;55.70
70421;SHT31;57848;51.938;15.520;2023-04-25T11:02:57;13.77;55.11
70421;SHT31;57848;51.938;15.520;2023-04-25T11:05:30;13.48;56.33
70421;SHT31;57848;51.938;15.520;2023-04-25T11:07:57;12.97;56.76
70421;SHT31;57848;51.938;15.520;2023-04-25T11:10:30;12.90;58.21
70421;SHT31;57848;51.938;15.520;2023-04-25T11:12:57;12.42;59.18
70421;SHT31;57848;51.938;15.520;2023-04-25T11:15:23;12.21;60.92
70421;SHT31;57848;51.938;15.520;2023-04-25T11:17:51;12.11;62.39
70421;SHT31;57848;51.938;15.520;2023-04-25T11:20:16;12.09;62.57
70421;SHT31;57848;51.938;15.520;2023-04-25T11:22:43;11.92;63.71
70421;SHT31;57848;51.938;15.520;2023-04-25T11:25:10;12.01;63.76
70421;SHT31;57848;51.938;15.520;2023-04-25T11:27:52;11.95;62.94
70421;SHT31;57848;51.938;15.520;2023-04-25T11:30:18;11.91;62.57
70421;SHT31;57848;51.938;15.520;2023-04-25T11:32:44;11.86;62.53
70421;SHT31;57848;51.938;15.520;2023-04-25T11:35:10;12.01;61.70
70421;SHT31;57848;51.938;15.520;2023-04-25T11:37:36;12.18;61.41
70421;SHT31;57848;51.938;15.520;2023-04-25T11:40:04;14.65;55.59
70421;SHT31;57848;51.938;15.520;2023-04-25T11:42:32;16.84;49.50
70421;SHT31;57848;51.938;15.520;2023-04-25T11:44:57;18.30;46.31
70421;SHT31;57848;51.938;15.520;2023-04-25T11:47:29;19.24;43.44
70421;SHT31;57848;51.938;15.520;2023-04-25T11:49:54;19.49;42.68
70421;SHT31;57848;51.938;15.520;2023-04-25T11:52:20;19.96;41.76
70421;SHT31;57848;51.938;15.520;2023-04-25T11:54:45;19.22;43.27
70421;SHT31;57848;51.938;15.520;2023-04-25T11:57:11;17.46;45.78
70421;SHT31;57848;51.938;15.520;2023-04-25T11:59:36;16.60;47.66
70421;SHT31;57848;51.938;15.520;2023-04-25T12:02:02;15.89;50.12
70421;SHT31;57848;51.938;15.520;2023-04-25T12:04:30;15.23;52.35
70421;SHT31;57848;51.938;15.520;2023-04-25T12:06:56;14.34;56.43
70421;SHT31;57848;51.938;15.520;2023-04-25T12:09:30;12.87;77.83
70421;SHT31;57848;51.938;15.520;2023-04-25T12:11:57;10.86;96.15
70421;SHT31;57848;51.938;15.520;2023-04-25T12:14:25;10.41;99.13
70421;SHT31;57848;51.938;15.520;2023-04-25T12:16:52;9.84;92.77
70421;SHT31;57848;51.938;15.520;2023-04-25T12:19:19;9.60;92.18
70421;SHT31;57848;51.938;15.520;2023-04-25T12:21:45;9.70;94.86
70421;SHT31;57848;51.938;15.520;2023-04-25T12:24:15;10.03;95.03
70421;SHT31;57848;51.938;15.520;2023-04-25T12:26:48;10.79;92.33
70421;SHT31;57848;51.938;15.520;2023-04-25T12:29:19;11.27;91.30
70421;SHT31;57848;51.938;15.520;2023-04-25T12:31:45;10.99;88.38
70421;SHT31;57848;51.938;15.520;2023-04-25T12:34:10;11.04;89.26
70421;SHT31;57848;51.938;15.520;2023-04-25T12:36:36;11.41;85.15
70421;SHT31;57848;51.938;15.520;2023-04-25T12:39:02;10.95;85.99
70421;SHT31;57848;51.938;15.520;2023-04-25T12:41:29;10.88;87.33
70421;SHT31;57848;51.938;15.520;2023-04-25T12:43:55;11.12;86.94
70421;SHT31;57848;51.938;15.520;2023-04-25T12:46:20;11.31;83.88
70421;SHT31;57848;51.938;15.520;2023-04-25T12:48:46;11.27;83.91
70421;SHT31;57848;51.938;15.520;2023-04-25T12:51:11;11.22;83.14
70421;SHT31;57848;51.938;15.520;2023-04-25T12:53:37;11.14;80.91
70421;SHT31;57848;51.938;15.520;2023-04-25T12:56:04;11.14;82.15
70421;SHT31;57848;51.938;15.520;2023-04-25T12:58:29;10.88;80.73
70421;SHT31;57848;51.938;15.520;2023-04-25T13:00:56;10.96;81.46
70421;SHT31;57848;51.938;15.520;2023-04-25T13:03:21;10.93;77.15
70421;SHT31;57848;51.938;15.520;2023-04-25T13:05:47;11.86;76.78
70421;SHT31;57848;51.938;15.520;2023-04-25T13:08:12;12.05;76.21
70421;SHT31;57848;51.938;15.520;2023-04-25T13:10:38;12.26;73.09
70421;SHT31;57848;51.938;15.520;2023-04-25T13:13:04;12.02;73.57
70421;SHT31;57848;51.938;15.520;2023-04-25T13:15:29;12.06;73.71
70421;SHT31;57848;51.938;15.520;2023-04-25T13:17:55;12.53;70.97
70421;SHT31;57848;51.938;15.520;2023-04-25T13:20:21;12.65;66.13
70421;SHT31;57848;51.938;15.520;2023-04-25T13:22:47;12.63;63.23
70421;SHT31;57848;51.938;15.520;2023-04-25T13:25:13;12.57;63.04
70421;SHT31;57848;51.938;15.520;2023-04-25T13:27:38;12.83;62.93
70421;SHT31;57848;51.938;15.520;2023-04-25T13:30:06;12.85;64.02
70421;SHT31;57848;51.938;15.520;2023-04-25T13:32:35;12.56;67.01
70421;SHT31;57848;51.938;15.520;2023-04-25T13:35:08;12.32;65.28
70421;SHT31;57848;51.938;15.520;2023-04-25T13:37:34;12.11;65.71
70421;SHT31;57848;51.938;15.520;2023-04-25T13:40:01;11.86;68.09
70421;SHT31;57848;51.938;15.520;2023-04-25T13:42:29;11.60;66.64
70421;SHT31;57848;51.938;15.520;2023-04-25T13:44:54;11.24;66.42
70421;SHT31;57848;51.938;15.520;2023-04-25T13:47:20;11.24;67.47
70421;SHT31;57848;51.938;15.520;2023-04-25T13:49:45;11.12;67.30
70421;SHT31;57848;51.938;15.520;2023-04-25T13:52:10;11.16;68.45
70421;SHT31;57848;51.938;15.520;2023-04-25T13:54:36;11.22;66.13
70421;SHT31;57848;51.938;15.520;2023-04-25T13:57:01;11.40;68.15
70421;SHT31;57848;51.938;15.520;2023-04-25T13:59:27;11.28;65.91
70421;SHT31;57848;51.938;15.520;2023-04-25T14:01:52;11.23;65.25
70421;SHT31;57848;51.938;15.520;2023-04-25T14:04:18;11.14;65.23
70421;SHT31;57848;51.938;15.520;2023-04-25T14:06:43;11.17;66.22
70421;SHT31;57848;51.938;15.520;2023-04-25T14:09:09;11.19;66.48
70421;SHT31;57848;51.938;15.520;2023-04-25T14:11:38;11.13;63.18
70421;SHT31;57848;51.938;15.520;2023-04-25T14:14:03;11.24;64.31
70421;SHT31;57848;51.938;15.520;2023-04-25T14:16:30;11.20;62.21
70421;SHT31;57848;51.938;15.520;2023-04-25T14:18:58;11.03;61.71
70421;SHT31;57848;51.938;15.520;2023-04-25T14:21:23;10.97;62.49
70421;SHT31;57848;51.938;15.520;2023-04-25T14:23:48;10.99;62.73
70421;SHT31;57848;51.938;15.520;2023-04-25T14:26:14;11.06;63.53
70421;SHT31;57848;51.938;15.520;2023-04-25T14:28:39;11.17;63.63
70421;SHT31;57848;51.938;15.520;2023-04-25T14:31:05;11.22;60.62
70421;SHT31;57848;51.938;15.520;2023-04-25T14:33:30;11.31;60.01
70421;SHT31;57848;51.938;15.520;2023-04-25T14:35:56;11.41;59.35
70421;SHT31;57848;51.938;15.520;2023-04-25T14:38:21;11.54;59.95
70421;SHT31;57848;51.938;15.520;2023-04-25T14:40:49;11.35;59.28
70421;SHT31;57848;51.938;15.520;2023-04-25T14:43:14;11.14;59.39
70421;SHT31;57848;51.938;15.520;2023-04-25T14:45:40;11.02;60.06
70421;SHT31;57848;51.938;15.520;2023-04-25T14:48:05;11.03;59.75
70421;SHT31;57848;51.938;15.520;2023-04-25T14:50:30;11.03;59.88
70421;SHT31;57848;51.938;15.520;2023-04-25T14:52:56;11.28;59.29
70421;SHT31;57848;51.938;15.520;2023-04-25T14:55:24;11.41;58.80
70421;SHT31;57848;51.938;15.520;2023-04-25T14:57:49;11.33;58.60
70421;SHT31;57848;51.938;15.520;2023-04-25T15:00:16;11.43;58.52
70421;SHT31;57848;51.938;15.520;2023-04-25T15:02:42;11.45;58.01
70421;SHT31;57848;51.938;15.520;2023-04-25T15:05:07;11.57;58.41
70421;SHT31;57848;51.938;15.520;2023-04-25T15:07:36;11.41;58.24
70421;SHT31;57848;51.938;15.520;2023-04-25T15:10:02;11.37;58.23
70421;SHT31;57848;51.938;15.520;2023-04-25T15:12:27;11.41;57.47
70421;SHT31;57848;51.938;15.520;2023-04-25T15:14:53;11.28;55.49
70421;SHT31;57848;51.938;15.520;2023-04-25T15:17:19;11.26;54.64
70421;SHT31;57848;51.938;15.520;2023-04-25T15:19:44;10.95;55.41
70421;SHT31;57848;51.938;15.520;2023-04-25T15:22:10;10.88;56.26
70421;SHT31;57848;51.938;15.520;2023-04-25T15:24:35;10.95;55.86
70421;SHT31;57848;51.938;15.520;2023-04-25T15:27:01;10.80;55.65
70421;SHT31;57848;51.938;15.520;2023-04-25T15:29:27;10.75;56.45
70421;SHT31;57848;51.938;15.520;2023-04-25T15:31:53;10.77;55.54